CFG3TN EDDB-EDDF
Flight info
| Callsign | CFG3TN |
|---|---|
| Flight time | N/A |
| Altitude | 23000 |
| Route | KISUC1Z KISUC Z117 ODLUN/N0402F240 DCT ORTAG/N0392F220 T177 ODIPI/N0387F210 T157 KERAX KERAX5D |
| Aircraft | A21N/M-SDE2E3FGHIRWXY/LB1 |
Departure
| Time | 2026-04-30 22:17 |
|---|---|
| Airport | Berlin Brandenburg Airport (EDDB) |
Arrival
| Time | N/A |
|---|---|
| Airport | Frankfurt Main Airport (EDDF) |
| Time | Latitude | Longitude | Altitude | Speed | Heading |
|---|---|---|---|---|---|
| 2026-04-30 21:29 | 52.36740 | 13.50504 | 160 ft | 0 kts | 159° |
| 2026-04-30 22:05 | 52.36759 | 13.50492 | 160 ft | 4 kts | 159° |
| 2026-04-30 22:05 | 52.36781 | 13.50478 | 160 ft | 4 kts | 163° |
| 2026-04-30 22:06 | 52.36803 | 13.50479 | 160 ft | 4 kts | 219° |
| 2026-04-30 22:06 | 52.36819 | 13.50522 | 160 ft | 0 kts | 249° |
| 2026-04-30 22:09 | 52.36816 | 13.50507 | 160 ft | 4 kts | 249° |
| 2026-04-30 22:09 | 52.36800 | 13.50438 | 160 ft | 9 kts | 249° |
| 2026-04-30 22:09 | 52.36774 | 13.50328 | 160 ft | 11 kts | 248° |
| 2026-04-30 22:09 | 52.36743 | 13.50201 | 160 ft | 13 kts | 249° |
| 2026-04-30 22:10 | 52.36695 | 13.50095 | 160 ft | 13 kts | 192° |
| 2026-04-30 22:10 | 52.36607 | 13.50138 | 160 ft | 14 kts | 158° |
| 2026-04-30 22:10 | 52.36512 | 13.50199 | 160 ft | 15 kts | 158° |
| 2026-04-30 22:10 | 52.36408 | 13.50265 | 160 ft | 17 kts | 159° |
| 2026-04-30 22:11 | 52.36175 | 13.50412 | 160 ft | 19 kts | 159° |
| 2026-04-30 22:11 | 52.36048 | 13.50492 | 160 ft | 20 kts | 159° |
| 2026-04-30 22:11 | 52.35914 | 13.50576 | 160 ft | 21 kts | 159° |
| 2026-04-30 22:12 | 52.35792 | 13.50654 | 160 ft | 12 kts | 159° |
| 2026-04-30 22:12 | 52.35711 | 13.50690 | 160 ft | 13 kts | 195° |
| 2026-04-30 22:12 | 52.35662 | 13.50561 | 162 ft | 14 kts | 249° |
| 2026-04-30 22:12 | 52.35624 | 13.50400 | 160 ft | 16 kts | 249° |
| 2026-04-30 22:13 | 52.35584 | 13.50227 | 160 ft | 17 kts | 249° |
| 2026-04-30 22:13 | 52.35539 | 13.50040 | 160 ft | 18 kts | 248° |
| 2026-04-30 22:13 | 52.35490 | 13.49842 | 160 ft | 19 kts | 248° |
| 2026-04-30 22:13 | 52.35441 | 13.49630 | 160 ft | 20 kts | 251° |
| 2026-04-30 22:14 | 52.35389 | 13.49408 | 160 ft | 21 kts | 249° |
| 2026-04-30 22:14 | 52.35333 | 13.49174 | 160 ft | 23 kts | 249° |
| 2026-04-30 22:14 | 52.35275 | 13.49006 | 160 ft | 10 kts | 147° |
| 2026-04-30 22:14 | 52.35263 | 13.49129 | 160 ft | 12 kts | 95° |
| 2026-04-30 22:15 | 52.35252 | 13.49272 | 160 ft | 13 kts | 100° |
| 2026-04-30 22:15 | 52.35236 | 13.49430 | 160 ft | 15 kts | 98° |
| 2026-04-30 22:15 | 52.35219 | 13.49604 | 160 ft | 16 kts | 98° |
| 2026-04-30 22:15 | 52.35259 | 13.49858 | 160 ft | 45 kts | 68° |
| 2026-04-30 22:16 | 52.35467 | 13.50737 | 160 ft | 119 kts | 68° |
| 2026-04-30 22:16 | 52.35845 | 13.52335 | 256 ft | 172 kts | 69° |
| 2026-04-30 22:17 | 52.36332 | 13.58300 | 2341 ft | 184 kts | 83° |
| 2026-04-30 22:17 | 52.36456 | 13.60477 | 2940 ft | 196 kts | 82° |
| 2026-04-30 22:17 | 52.36726 | 13.65244 | 3989 ft | 228 kts | 83° |
| 2026-04-30 22:18 | 52.36872 | 13.67867 | 4754 ft | 234 kts | 83° |
| 2026-04-30 22:18 | 52.36773 | 13.73194 | 6498 ft | 242 kts | 113° |
| 2026-04-30 22:19 | 52.34170 | 13.76594 | 8108 ft | 259 kts | 165° |
| 2026-04-30 22:19 | 52.32342 | 13.76551 | 8844 ft | 269 kts | 191° |
| 2026-04-30 22:19 | 52.28613 | 13.74383 | 9885 ft | 301 kts | 198° |
| 2026-04-30 22:20 | 52.26619 | 13.73098 | 10456 ft | 313 kts | 204° |
| 2026-04-30 22:20 | 52.23761 | 13.67688 | 11498 ft | 336 kts | 251° |
| 2026-04-30 22:20 | 52.22980 | 13.63987 | 11824 ft | 354 kts | 253° |
| 2026-04-30 22:21 | 52.22172 | 13.60066 | 12123 ft | 373 kts | 253° |
| 2026-04-30 22:21 | 52.21296 | 13.56027 | 12423 ft | 392 kts | 251° |
| 2026-04-30 22:21 | 52.20336 | 13.51762 | 12708 ft | 410 kts | 251° |
| 2026-04-30 22:21 | 52.19362 | 13.47330 | 13210 ft | 417 kts | 255° |
| 2026-04-30 22:22 | 52.18862 | 13.42666 | 13864 ft | 418 kts | 267° |
| 2026-04-30 22:22 | 52.18624 | 13.37920 | 14475 ft | 421 kts | 268° |
| 2026-04-30 22:22 | 52.18398 | 13.33130 | 15067 ft | 425 kts | 268° |
| 2026-04-30 22:22 | 52.18160 | 13.28309 | 15652 ft | 428 kts | 268° |
| 2026-04-30 22:23 | 52.17911 | 13.23458 | 16251 ft | 432 kts | 268° |
| 2026-04-30 22:23 | 52.17652 | 13.18562 | 16853 ft | 436 kts | 268° |
| 2026-04-30 22:23 | 52.17387 | 13.13625 | 17458 ft | 439 kts | 268° |
| 2026-04-30 22:23 | 52.17115 | 13.08651 | 18061 ft | 443 kts | 268° |
| 2026-04-30 22:24 | 52.16839 | 13.03615 | 18662 ft | 447 kts | 268° |
| 2026-04-30 22:24 | 52.16564 | 12.98608 | 19177 ft | 451 kts | 268° |
| 2026-04-30 22:24 | 52.16117 | 12.93524 | 19686 ft | 457 kts | 261° |
| 2026-04-30 22:24 | 52.15406 | 12.88445 | 20186 ft | 460 kts | 260° |
| 2026-04-30 22:25 | 52.14674 | 12.83360 | 20731 ft | 462 kts | 259° |
| 2026-04-30 22:25 | 52.13941 | 12.78245 | 21225 ft | 465 kts | 260° |
| 2026-04-30 22:25 | 52.13206 | 12.73095 | 21715 ft | 468 kts | 260° |
| 2026-04-30 22:25 | 52.12469 | 12.67919 | 22193 ft | 471 kts | 260° |
| 2026-04-30 22:26 | 52.10976 | 12.57477 | 23149 ft | 477 kts | 259° |
| 2026-04-30 22:26 | 52.10218 | 12.52207 | 23459 ft | 478 kts | 259° |
| 2026-04-30 22:26 | 52.09473 | 12.47039 | 23504 ft | 474 kts | 259° |
| 2026-04-30 22:27 | 52.08719 | 12.41821 | 23495 ft | 474 kts | 259° |
| 2026-04-30 22:27 | 52.07940 | 12.36621 | 23477 ft | 475 kts | 257° |
| 2026-04-30 22:27 | 52.05034 | 12.26989 | 23462 ft | 478 kts | 235° |
| 2026-04-30 22:28 | 52.01028 | 12.18363 | 23468 ft | 478 kts | 233° |
| 2026-04-30 22:28 | 51.99022 | 12.14055 | 23466 ft | 478 kts | 234° |
| 2026-04-30 22:29 | 51.93056 | 12.01143 | 23463 ft | 476 kts | 234° |
| 2026-04-30 22:29 | 51.91072 | 11.96851 | 23476 ft | 476 kts | 234° |
| 2026-04-30 22:30 | 51.83114 | 11.79753 | 23470 ft | 477 kts | 233° |
| 2026-04-30 22:31 | 51.77023 | 11.66947 | 23462 ft | 479 kts | 233° |
| 2026-04-30 22:32 | 51.70928 | 11.54141 | 23470 ft | 479 kts | 233° |
| 2026-04-30 22:32 | 51.66847 | 11.45616 | 23471 ft | 480 kts | 233° |
| 2026-04-30 22:33 | 51.60716 | 11.32860 | 23474 ft | 480 kts | 233° |
| 2026-04-30 22:33 | 51.56647 | 11.24429 | 23477 ft | 480 kts | 233° |
| 2026-04-30 22:34 | 51.50500 | 11.11744 | 23476 ft | 480 kts | 232° |
| 2026-04-30 22:35 | 51.46856 | 11.02827 | 23469 ft | 477 kts | 242° |
| 2026-04-30 22:36 | 51.40953 | 10.85829 | 23484 ft | 476 kts | 242° |
| 2026-04-30 22:36 | 51.39333 | 10.81208 | 23475 ft | 476 kts | 242° |
| 2026-04-30 22:37 | 51.34443 | 10.67308 | 23481 ft | 480 kts | 242° |
| 2026-04-30 22:37 | 51.32802 | 10.62658 | 23477 ft | 480 kts | 242° |
| 2026-04-30 22:37 | 51.29510 | 10.53349 | 23468 ft | 480 kts | 241° |
| 2026-04-30 22:38 | 51.25927 | 10.44371 | 23482 ft | 480 kts | 232° |
| 2026-04-30 22:38 | 51.21736 | 10.36073 | 23498 ft | 480 kts | 231° |
| 2026-04-30 22:39 | 51.19634 | 10.31932 | 23487 ft | 477 kts | 231° |
| 2026-04-30 22:39 | 51.11815 | 10.22722 | 23476 ft | 471 kts | 197° |
| 2026-04-30 22:40 | 51.02203 | 10.21188 | 23473 ft | 463 kts | 176° |
| 2026-04-30 22:41 | 50.92465 | 10.21162 | 23477 ft | 471 kts | 177° |
| 2026-04-30 22:41 | 50.85914 | 10.20966 | 23469 ft | 473 kts | 182° |
| 2026-04-30 22:42 | 50.75588 | 10.09056 | 23478 ft | 483 kts | 245° |
| 2026-04-30 22:43 | 50.72809 | 9.99501 | 23482 ft | 481 kts | 245° |
| 2026-04-30 22:43 | 50.69846 | 9.90046 | 23472 ft | 480 kts | 244° |
| 2026-04-30 22:44 | 50.66817 | 9.80654 | 23451 ft | 479 kts | 243° |
| 2026-04-30 22:45 | 50.58401 | 9.64887 | 23451 ft | 476 kts | 206° |
| 2026-04-30 22:45 | 50.52383 | 9.60640 | 23445 ft | 476 kts | 208° |
| 2026-04-30 22:46 | 50.47498 | 9.53747 | 23449 ft | 480 kts | 234° |
| 2026-04-30 22:47 | 50.42927 | 9.34217 | 23446 ft | 478 kts | 253° |
| 2026-04-30 22:47 | 50.39845 | 9.25052 | 23409 ft | 476 kts | 230° |
| 2026-04-30 22:48 | 50.34784 | 9.18549 | 23432 ft | 471 kts | 210° |
| 2026-04-30 22:49 | 50.27150 | 9.08991 | 23422 ft | 474 kts | 233° |
| 2026-04-30 22:49 | 50.23210 | 8.94791 | 23406 ft | 477 kts | 251° |
| 2026-04-30 22:50 | 50.18694 | 8.75377 | 22695 ft | 471 kts | 250° |
| 2026-04-30 22:51 | 50.16392 | 8.65668 | 20282 ft | 478 kts | 250° |
| 2026-04-30 22:51 | 50.14113 | 8.56110 | 18768 ft | 465 kts | 249° |
| 2026-04-30 22:52 | 50.12994 | 8.51425 | 18029 ft | 457 kts | 249° |
| 2026-04-30 22:52 | 50.10795 | 8.42255 | 16621 ft | 441 kts | 249° |
| 2026-04-30 22:53 | 50.08671 | 8.33457 | 15350 ft | 427 kts | 249° |
| 2026-04-30 22:53 | 50.06600 | 8.24934 | 14099 ft | 415 kts | 249° |
| 2026-04-30 22:53 | 50.05585 | 8.20762 | 13438 ft | 409 kts | 248° |
| 2026-04-30 22:54 | 50.03593 | 8.12603 | 12214 ft | 400 kts | 248° |
| 2026-04-30 22:55 | 50.00775 | 8.01060 | 11369 ft | 360 kts | 248° |
| 2026-04-30 22:55 | 49.99064 | 7.94068 | 10988 ft | 333 kts | 247° |
| 2026-04-30 22:56 | 49.97475 | 7.87593 | 10565 ft | 312 kts | 247° |
| 2026-04-30 22:56 | 49.95159 | 7.78245 | 9220 ft | 306 kts | 246° |
| 2026-04-30 22:57 | 49.93647 | 7.72139 | 8785 ft | 299 kts | 246° |
| 2026-04-30 22:57 | 49.92056 | 7.66284 | 8507 ft | 292 kts | 232° |
| 2026-04-30 22:58 | 49.88812 | 7.63140 | 8251 ft | 275 kts | 182° |
| 2026-04-30 22:59 | 49.84448 | 7.67225 | 7414 ft | 258 kts | 108° |
| 2026-04-30 22:59 | 49.84320 | 7.75442 | 6392 ft | 259 kts | 73° |